x

Ilm3 - 27 Miles Se Of Wrightsville Beach, Nc (41037) Weather Station

6:08pm - Sat 6th Feb 2016 All times are EST. -5 hours from GMT.

  • Wind
    22mph, 29mph gusts
  • Sea Temp 69°f
  • 空気 Temp 52°f
  • Sea Pressure 1023.5mb
  • Ilm3 - 27 Miles Se Of Wrightsville Beach, Nc
  • Ilm3 - 27 Miles Se Of Wrightsville Beach, Nc

More Historic Weather Station data

Upgrade to MSW Pro to gain access to the past 30 days of data for over 8000 Wavebouys and Weather Stations around the globe.

Join Pro

Comparision Forecast

View Surf forecast
   
Sat 02/06 6:08pm 22 29 mph 1023.5mb 69f 52f
5:08pm 20 27 mph 1024.3mb 69f 52f
4:08pm 20 27 mph 1024.2mb 69f 52f
3:08pm 16 25 mph 1024.2mb - 52f
12:08pm 18 27 mph 1027.4mb 69f 49f
11:08am 20 29 mph 1028.7mb 69f 49f
10:08am 18 27 mph 1028.8mb - 48f
8:08am 20 29 mph 1028.5mb 69f 48f
7:08am 20 27 mph 1027.9mb 69f 48f
6:08am 18 25 mph 1027.6mb 69f 49f
5:08am 13 22 mph 1027mb 69f 48f
4:08am 13 22 mph 1027.1mb 69f 48f
3:08am 11 20 mph 1028mb 69f 48f
2:08am 13 20 mph 1027.9mb 69f 48f
1:08am 13 25 mph 1028.2mb - 48f
Fri 02/05 11:08pm 16 25 mph 1028.3mb 69f 48f
10:08pm 13 22 mph 1028.3mb 68f 48f
9:08pm 16 25 mph 1027.6mb 69f 49f
8:08pm 16 25 mph 1026.7mb 69f 49f
7:08pm 16 27 mph 1026.4mb - 49f
5:08pm 16 25 mph 1024.5mb 68f 49f
4:08pm 16 25 mph 1024.8mb - 48f
2:08pm 20 31 mph 1023.4mb - 48f
12:08pm 22 29 mph 1023.8mb 64f 48f
11:08am 25 36 mph 1024mb - 47f
8:08am 31 43 mph 1020.9mb 64f 47f
7:08am 38 54 mph 1017.7mb 64f 48f
6:08am 25 38 mph 1015.3mb 64f 49f
5:08am 31 40 mph 1014.3mb 64f 49f
4:08am 27 38 mph 1011.8mb 64f 50f
3:08am 27 38 mph 1011.4mb 64f 51f
2:08am 20 27 mph 1010.9mb 62f 56f
1:08am 20 31 mph 1010.2mb 61f 65f
12:08am 18 25 mph 1012.6mb 60f 65f
Thu 02/04 11:08pm 11 18 mph 1014.2mb 61f 64f
10:08pm 2 9 mph 1014mb 61f 62f
9:08pm 2 7 mph 1013.9mb 61f 62f
8:08pm 7 13 mph 1014.9mb 61f 62f
7:08pm 11 16 mph 1014.5mb 61f 61f
6:08pm 13 20 mph 1015.4mb 61f 62f
5:08pm 16 20 mph 1015.1mb 61f 62f
4:08pm 13 20 mph 1014.7mb 62f 63f
3:08pm 11 18 mph 1015.1mb 62f 64f
2:08pm 16 22 mph 1016mb 62f 64f
1:08pm 11 18 mph 1016.4mb 62f 64f
12:08pm 11 18 mph 1016.3mb 63f 63f